TimeMDT,TemperatureF,Dew PointF,Humidity,Sea Level PressureIn,VisibilityMPH,Wind Direction,Wind SpeedMPH,Gust SpeedMPH,PrecipitationIn,Events,Conditions,WindDirDegrees,DateUTC
12:15 AM,37.9,34.5,87,30.29,10.0,SSW,5.8,-,N/A,,Clear,200,2013-10-25 06:15:00
12:35 AM,37.8,34.5,88,30.29,10.0,SW,5.8,-,N/A,,Clear,220,2013-10-25 06:35:00
12:55 AM,38.3,34.3,86,30.28,10.0,SSW,6.9,18.4,N/A,,Clear,210,2013-10-25 06:55:00
1:15 AM,38.3,34.5,86,30.29,10.0,SW,6.9,-,N/A,,Clear,220,2013-10-25 07:15:00
1:35 AM,37.4,34.0,87,30.29,10.0,WSW,5.8,-,N/A,,Clear,250,2013-10-25 07:35:00
1:55 AM,37.6,34.7,89,30.29,10.0,SW,5.8,-,N/A,,Clear,230,2013-10-25 07:55:00
2:15 AM,37.4,34.3,89,30.28,10.0,SW,4.6,-,N/A,,Clear,230,2013-10-25 08:15:00
2:35 AM,37.4,33.8,87,30.28,10.0,WSW,3.5,-,N/A,,Clear,240,2013-10-25 08:35:00
2:55 AM,36.5,33.6,89,30.27,10.0,West,3.5,-,N/A,,Clear,260,2013-10-25 08:55:00
3:15 AM,35.8,32.9,89,30.27,10.0,WSW,4.6,-,N/A,,Clear,240,2013-10-25 09:15:00
3:35 AM,34.7,32.2,91,30.27,10.0,WSW,4.6,-,N/A,,Clear,250,2013-10-25 09:35:00
3:55 AM,36.0,33.3,90,30.26,10.0,Calm,Calm,-,N/A,,Clear,0,2013-10-25 09:55:00
4:15 AM,34.9,32.5,91,30.26,10.0,Calm,Calm,-,N/A,,Clear,0,2013-10-25 10:15:00
4:35 AM,34.0,32.0,92,30.25,10.0,Calm,Calm,-,N/A,,Clear,0,2013-10-25 10:35:00
4:55 AM,33.6,32.0,94,30.25,10.0,SW,3.5,-,N/A,,Clear,230,2013-10-25 10:55:00
5:15 AM,34.0,32.4,94,30.25,7.0,Calm,Calm,-,N/A,,Clear,0,2013-10-25 11:15:00
5:35 AM,33.1,32.0,96,30.24,7.0,Calm,Calm,-,N/A,,Clear,0,2013-10-25 11:35:00
5:55 AM,32.0,30.9,96,30.24,7.0,Calm,Calm,-,N/A,,Clear,0,2013-10-25 11:55:00
6:15 AM,30.9,29.5,94,30.23,7.0,Calm,Calm,-,N/A,,Clear,0,2013-10-25 12:15:00
6:35 AM,30.4,29.1,95,30.23,5.0,Calm,Calm,-,N/A,,Clear,0,2013-10-25 12:35:00
6:55 AM,30.6,29.3,95,30.22,5.0,Calm,Calm,-,N/A,,Clear,0,2013-10-25 12:55:00
7:15 AM,30.6,29.3,95,30.21,5.0,Calm,Calm,-,N/A,,Clear,0,2013-10-25 13:15:00
7:35 AM,33.4,32.2,95,30.21,7.0,Calm,Calm,-,N/A,,Clear,0,2013-10-25 13:35:00
7:55 AM,34.0,32.2,93,30.21,10.0,Calm,Calm,-,N/A,,Clear,0,2013-10-25 13:55:00
8:15 AM,36.0,33.4,91,30.22,10.0,Calm,Calm,-,N/A,,Clear,0,2013-10-25 14:15:00
8:35 AM,38.3,34.7,87,30.21,10.0,Calm,Calm,-,N/A,,Clear,0,2013-10-25 14:35:00
8:55 AM,40.1,36.0,85,30.21,10.0,Calm,Calm,-,N/A,,Clear,0,2013-10-25 14:55:00
9:15 AM,42.6,36.3,78,30.21,10.0,SW,9.2,-,N/A,,Clear,220,2013-10-25 15:15:00
9:35 AM,44.1,36.5,75,30.20,10.0,SW,9.2,-,N/A,,Clear,220,2013-10-25 15:35:00
9:55 AM,45.7,36.9,71,30.19,10.0,SW,8.1,-,N/A,,Clear,220,2013-10-25 15:55:00
10:15 AM,47.1,37.2,68,30.18,10.0,SW,6.9,-,N/A,,Clear,220,2013-10-25 16:15:00
10:35 AM,48.7,37.6,65,30.18,10.0,SSW,9.2,-,N/A,,Clear,210,2013-10-25 16:35:00
10:55 AM,50.5,38.1,62,30.17,10.0,SW,9.2,-,N/A,,Clear,220,2013-10-25 16:55:00
11:15 AM,52.0,38.3,60,30.16,10.0,SSW,10.4,-,N/A,,Clear,200,2013-10-25 17:15:00
11:35 AM,53.8,38.7,57,30.15,10.0,South,9.2,-,N/A,,Clear,190,2013-10-25 17:35:00
11:55 AM,55.0,38.7,54,30.14,10.0,South,5.8,-,N/A,,Clear,190,2013-10-25 17:55:00
12:15 PM,57.4,39.2,51,30.14,10.0,SSW,6.9,-,N/A,,Clear,210,2013-10-25 18:15:00
12:35 PM,58.6,38.8,48,30.11,10.0,SSW,6.9,-,N/A,,Clear,200,2013-10-25 18:35:00
12:55 PM,60.3,38.7,45,30.11,10.0,SSW,8.1,-,N/A,,Clear,210,2013-10-25 18:55:00
1:15 PM,61.5,39.0,43,30.09,10.0,South,8.1,-,N/A,,Clear,190,2013-10-25 19:15:00
1:35 PM,63.3,38.8,40,30.07,10.0,SSW,8.1,-,N/A,,Clear,200,2013-10-25 19:35:00
1:55 PM,64.4,38.7,39,30.07,10.0,SW,4.6,-,N/A,,Clear,230,2013-10-25 19:55:00
2:15 PM,65.3,38.3,37,30.06,10.0,WSW,5.8,-,N/A,,Clear,240,2013-10-25 20:15:00
2:35 PM,66.4,38.1,35,30.06,10.0,SW,5.8,-,N/A,,Clear,220,2013-10-25 20:35:00
2:55 PM,66.6,38.3,35,30.05,10.0,SW,4.6,-,N/A,,Clear,220,2013-10-25 20:55:00
3:15 PM,67.3,38.3,35,30.05,10.0,SW,4.6,-,N/A,,Clear,230,2013-10-25 21:15:00
3:35 PM,67.6,38.3,34,30.04,10.0,WSW,3.5,-,N/A,,Clear,240,2013-10-25 21:35:00
3:55 PM,68.0,38.3,34,30.04,10.0,SW,5.8,-,N/A,,Clear,230,2013-10-25 21:55:00
4:15 PM,68.0,38.3,34,30.04,10.0,SW,4.6,-,N/A,,Clear,220,2013-10-25 22:15:00
4:35 PM,68.2,38.3,33,30.04,10.0,SW,4.6,-,N/A,,Clear,220,2013-10-25 22:35:00
4:55 PM,67.5,37.9,34,30.04,10.0,South,3.5,-,N/A,,Clear,190,2013-10-25 22:55:00
5:15 PM,66.4,38.3,36,30.04,10.0,South,3.5,-,N/A,,Clear,190,2013-10-25 23:15:00
5:35 PM,62.6,39.4,42,30.04,10.0,South,3.5,-,N/A,,Clear,170,2013-10-25 23:35:00
5:55 PM,58.6,39.4,49,30.04,10.0,Calm,Calm,-,N/A,,Clear,0,2013-10-25 23:55:00
6:15 PM,56.3,39.0,52,30.05,10.0,Calm,Calm,-,N/A,,Clear,0,2013-10-26 00:15:00
6:35 PM,55.8,39.2,54,30.05,10.0,Calm,Calm,-,N/A,,Clear,0,2013-10-26 00:35:00
6:55 PM,54.5,38.7,55,30.06,10.0,Calm,Calm,-,N/A,,Clear,0,2013-10-26 00:55:00
7:15 PM,48.9,37.6,65,30.07,10.0,WNW,3.5,-,N/A,,Clear,290,2013-10-26 01:15:00
7:35 PM,47.5,37.4,68,30.07,10.0,NW,3.5,-,N/A,,Clear,310,2013-10-26 01:35:00
7:55 PM,46.2,37.0,70,30.08,10.0,Calm,Calm,-,N/A,,Clear,0,2013-10-26 01:55:00
8:15 PM,45.0,36.9,73,30.08,10.0,Calm,Calm,-,N/A,,Clear,0,2013-10-26 02:15:00
8:35 PM,45.3,37.0,73,30.08,10.0,Calm,Calm,-,N/A,,Clear,0,2013-10-26 02:35:00
8:55 PM,43.9,36.1,74,30.09,10.0,Calm,Calm,-,N/A,,Clear,0,2013-10-26 02:55:00
9:15 PM,40.8,35.4,81,30.10,10.0,Calm,Calm,-,N/A,,Clear,0,2013-10-26 03:15:00
9:35 PM,40.8,34.7,79,30.11,10.0,Calm,Calm,-,N/A,,Clear,0,2013-10-26 03:35:00
9:55 PM,42.6,36.1,78,30.12,10.0,Calm,Calm,-,N/A,,Clear,0,2013-10-26 03:55:00
10:15 PM,39.6,34.7,83,30.12,10.0,Calm,Calm,-,N/A,,Clear,0,2013-10-26 04:15:00
10:35 PM,41.4,36.9,84,30.13,10.0,Calm,Calm,-,N/A,,Clear,0,2013-10-26 04:35:00
10:55 PM,39.2,35.2,86,30.13,10.0,SSW,3.5,-,N/A,,Clear,210,2013-10-26 04:55:00
11:15 PM,39.7,36.0,86,30.13,10.0,Calm,Calm,-,N/A,,Clear,0,2013-10-26 05:15:00
11:35 PM,46.2,39.9,79,30.13,10.0,North,9.2,-,N/A,,Clear,350,2013-10-26 05:35:00
11:55 PM,48.4,39.9,73,30.15,10.0,NNW,8.1,-,N/A,,Clear,340,2013-10-26 05:55:00